createdAt,value
2018-08-07T00:01:43.851Z,10.10
2018-08-07T00:04:12.626Z,12.23
2018-08-07T00:06:41.233Z,8.30
2018-08-07T00:09:10.820Z,7.83
2018-08-07T00:11:39.013Z,10.08
2018-08-07T00:14:07.465Z,8.98
2018-08-07T00:16:35.853Z,9.95
2018-08-07T00:19:03.994Z,9.25
2018-08-07T00:21:32.258Z,9.55
2018-08-07T00:24:00.448Z,9.10
2018-08-07T00:26:28.610Z,9.35
2018-08-07T00:28:56.802Z,9.85
2018-08-07T00:31:25.101Z,9.30
2018-08-07T00:33:53.754Z,10.78
2018-08-07T00:36:21.919Z,9.15
2018-08-07T00:38:50.222Z,8.95
2018-08-07T00:41:18.450Z,9.60
2018-08-07T00:43:46.662Z,10.40
2018-08-07T00:46:14.911Z,9.68
2018-08-07T00:48:43.097Z,10.32
2018-08-07T00:51:11.265Z,11.25
2018-08-07T00:53:39.477Z,11.70
2018-08-07T00:56:07.722Z,10.37
2018-08-07T00:58:35.926Z,11.50
2018-08-07T01:01:04.085Z,13.30
2018-08-07T01:03:32.257Z,11.47
2018-08-07T01:06:00.442Z,10.28
2018-08-07T01:08:28.809Z,10.23
2018-08-07T01:10:57.005Z,12.13
2018-08-07T01:13:25.634Z,12.37
2018-08-07T01:15:53.855Z,12.03
2018-08-07T01:18:22.085Z,13.83
2018-08-07T01:20:50.316Z,11.43
2018-08-07T01:23:18.562Z,10.10
2018-08-07T01:25:46.721Z,11.07
2018-08-07T01:28:14.922Z,10.33
2018-08-07T01:30:43.166Z,10.97
2018-08-07T01:33:11.349Z,10.60
2018-08-07T01:35:39.519Z,9.80
2018-08-07T01:38:08.187Z,10.55
2018-08-07T01:40:36.682Z,10.03
2018-08-07T01:43:05.080Z,11.23
2018-08-07T01:45:33.313Z,10.77
2018-08-07T01:48:01.526Z,14.53
2018-08-07T01:50:30.025Z,13.45
2018-08-07T01:52:58.244Z,11.95
2018-08-07T01:55:27.829Z,12.40
2018-08-07T01:57:56.422Z,14.17
2018-08-07T02:00:25.490Z,12.13
2018-08-07T02:02:53.753Z,12.10
2018-08-07T02:05:21.912Z,11.70
2018-08-07T02:07:50.074Z,11.40
2018-08-07T02:10:19.349Z,11.60
2018-08-07T02:12:47.558Z,12.28
2018-08-07T02:15:16.230Z,12.50
2018-08-07T02:17:44.487Z,12.80
2018-08-07T02:20:14.893Z,12.13
2018-08-07T02:22:43.789Z,12.93
2018-08-07T02:25:14.305Z,12.33
2018-08-07T02:27:43.013Z,13.33
2018-08-07T02:30:13.190Z,17.23
2018-08-07T02:32:41.902Z,13.00
2018-08-07T02:35:11.322Z,13.57
2018-08-07T02:37:39.999Z,12.00
2018-08-07T02:40:09.414Z,12.20
2018-08-07T02:42:37.610Z,11.10
2018-08-07T02:45:07.961Z,11.17
2018-08-07T02:47:36.295Z,11.37
2018-08-07T02:50:05.377Z,11.13
2018-08-07T02:52:33.560Z,11.47
2018-08-07T02:55:01.774Z,12.23
2018-08-07T02:57:29.957Z,12.00
2018-08-07T02:59:58.174Z,12.67
2018-08-07T03:02:26.346Z,13.53
2018-08-07T03:04:55.026Z,11.73
2018-08-07T03:07:23.247Z,13.30
2018-08-07T03:09:51.662Z,12.70
2018-08-07T03:12:19.841Z,13.33
2018-08-07T03:14:48.026Z,15.53
2018-08-07T03:17:16.190Z,15.67
2018-08-07T03:19:44.414Z,22.63
2018-08-07T03:22:12.614Z,15.00
2018-08-07T03:24:40.818Z,14.00
2018-08-07T03:27:09.078Z,17.10
2018-08-07T03:29:37.265Z,15.27
2018-08-07T03:32:05.479Z,13.07
2018-08-07T03:34:33.434Z,15.20
2018-08-07T03:37:01.681Z,15.47
2018-08-07T03:39:29.874Z,13.10
2018-08-07T03:41:58.033Z,14.70
2018-08-07T03:44:26.245Z,13.90
2018-08-07T03:46:54.476Z,15.70
2018-08-07T03:49:23.287Z,20.50
2018-08-07T03:51:51.335Z,16.63
2018-08-07T03:54:19.591Z,16.03
2018-08-07T03:56:47.781Z,16.60
2018-08-07T03:59:15.974Z,15.53
2018-08-07T04:01:44.174Z,16.90
2018-08-07T04:04:12.369Z,18.37
2018-08-07T04:06:40.554Z,15.77
2018-08-07T04:09:11.666Z,17.13
2018-08-07T04:11:39.976Z,16.97
2018-08-07T04:14:08.617Z,15.13
2018-08-07T04:16:38.798Z,15.63
2018-08-07T04:19:06.996Z,16.60
2018-08-07T04:21:35.220Z,12.63
2018-08-07T04:24:03.426Z,14.03
2018-08-07T04:26:31.666Z,13.23
2018-08-07T04:28:59.829Z,13.40
2018-08-07T04:31:28.043Z,14.83
2018-08-07T04:33:56.228Z,12.97
2018-08-07T04:36:24.538Z,17.13
2018-08-07T04:38:52.778Z,13.67
2018-08-07T04:41:20.953Z,14.40
2018-08-07T04:43:49.130Z,16.93
2018-08-07T04:46:17.777Z,14.40
2018-08-07T04:48:46.026Z,14.70
2018-08-07T04:51:14.261Z,14.97
2018-08-07T04:53:42.873Z,16.73
2018-08-07T04:56:11.081Z,14.23
2018-08-07T04:58:39.289Z,13.88
2018-08-07T05:01:07.667Z,14.58
2018-08-07T05:03:36.777Z,13.03
2018-08-07T05:06:04.953Z,11.97
2018-08-07T05:08:33.524Z,15.13
2018-08-07T05:11:01.785Z,12.95
2018-08-07T05:13:29.963Z,11.18
2018-08-07T05:15:58.252Z,11.00
2018-08-07T05:18:26.465Z,11.15
2018-08-07T05:20:54.682Z,14.33
2018-08-07T05:23:22.833Z,13.35
2018-08-07T05:25:51.549Z,11.95
2018-08-07T05:28:19.746Z,13.20
2018-08-07T05:30:47.969Z,15.70
2018-08-07T05:33:16.141Z,9.53
2018-08-07T05:35:46.012Z,18.75
2018-08-07T05:38:14.565Z,20.92
2018-08-07T05:40:42.818Z,12.50
2018-08-07T05:43:10.969Z,16.27
2018-08-07T05:45:39.802Z,17.00
2018-08-07T05:48:08.013Z,30.70
2018-08-07T05:50:36.355Z,32.93
2018-08-07T05:53:04.405Z,29.37
2018-08-07T05:55:32.984Z,16.10
2018-08-07T05:58:01.239Z,11.30
2018-08-07T06:00:29.409Z,14.50
2018-08-07T06:02:57.613Z,11.83
2018-08-07T06:05:25.806Z,9.38
2018-08-07T06:07:54.030Z,12.13
2018-08-07T06:10:22.211Z,9.63
2018-08-07T06:12:50.357Z,8.85
2018-08-07T06:15:18.748Z,8.35
2018-08-07T06:17:47.341Z,9.68
2018-08-07T06:20:15.510Z,9.98
2018-08-07T06:22:43.748Z,13.48
2018-08-07T06:25:12.026Z,16.20
2018-08-07T06:27:40.275Z,9.43
2018-08-07T06:30:12.073Z,9.45
2018-08-07T06:32:42.294Z,10.18
2018-08-07T06:35:10.681Z,11.53
2018-08-07T06:37:38.860Z,12.80
2018-08-07T06:40:08.997Z,9.75
2018-08-07T06:42:37.493Z,13.95
2018-08-07T06:45:06.404Z,11.30
2018-08-07T06:47:34.761Z,21.75
2018-08-07T06:50:03.182Z,13.95
2018-08-07T06:52:32.138Z,11.83
2018-08-07T06:55:00.325Z,10.25
2018-08-07T06:57:28.490Z,7.40
2018-08-07T06:59:56.677Z,7.40
2018-08-07T07:02:24.912Z,7.45
2018-08-07T07:04:53.159Z,9.85
2018-08-07T07:07:21.370Z,5.45
2018-08-07T07:09:49.603Z,7.85
2018-08-07T07:12:17.825Z,4.90
2018-08-07T07:14:46.915Z,5.20
2018-08-07T07:17:15.085Z,6.95
2018-08-07T07:19:43.309Z,7.03
2018-08-07T07:22:11.477Z,6.70
2018-08-07T07:24:40.037Z,5.00
2018-08-07T07:27:08.190Z,4.95
2018-08-07T07:29:37.087Z,9.98
2018-08-07T07:32:05.873Z,5.20
2018-08-07T07:34:34.131Z,11.73
2018-08-07T07:37:02.335Z,5.58
2018-08-07T07:39:30.544Z,7.97
2018-08-07T07:41:58.713Z,6.22
2018-08-07T07:44:26.699Z,5.12
2018-08-07T07:46:54.969Z,6.85
2018-08-07T07:49:23.170Z,4.83
2018-08-07T07:51:51.354Z,6.12
2018-08-07T07:54:19.598Z,6.85
2018-08-07T07:56:47.847Z,5.03
2018-08-07T07:59:15.997Z,5.05
2018-08-07T08:01:44.234Z,8.80
2018-08-07T08:04:12.623Z,5.72
2018-08-07T08:06:40.878Z,8.70
2018-08-07T08:09:09.054Z,6.47
2018-08-07T08:11:37.294Z,5.33
2018-08-07T08:14:05.519Z,6.45
2018-08-07T08:16:33.775Z,7.78
2018-08-07T08:19:01.958Z,7.60
2018-08-07T08:21:30.202Z,4.95
2018-08-07T08:23:58.423Z,5.33
2018-08-07T08:26:26.618Z,6.25
2018-08-07T08:28:55.177Z,6.15
2018-08-07T08:31:23.773Z,6.65
2018-08-07T08:33:51.985Z,6.12
2018-08-07T08:36:20.236Z,6.67
2018-08-07T08:38:48.688Z,9.18
2018-08-07T08:41:16.871Z,5.30
2018-08-07T08:43:45.063Z,5.30
2018-08-07T08:46:13.316Z,7.53
2018-08-07T08:48:41.598Z,6.55
2018-08-07T08:51:09.726Z,5.62
2018-08-07T08:53:38.763Z,6.22
2018-08-07T08:56:06.991Z,6.97
2018-08-07T08:58:36.565Z,5.33
2018-08-07T09:01:04.785Z,7.75
2018-08-07T09:03:33.014Z,7.47
2018-08-07T09:06:01.198Z,8.03
2018-08-07T09:08:29.395Z,4.90
2018-08-07T09:10:57.720Z,8.15
2018-08-07T09:13:25.913Z,5.83
2018-08-07T09:15:54.069Z,6.72
2018-08-07T09:18:22.271Z,5.97
2018-08-07T09:20:50.809Z,5.35
2018-08-07T09:23:19.009Z,5.45
2018-08-07T09:25:47.403Z,7.22
2018-08-07T09:28:15.383Z,6.03
2018-08-07T09:30:43.601Z,5.50
2018-08-07T09:33:11.914Z,5.80
2018-08-07T09:35:40.097Z,7.72
2018-08-07T09:38:08.322Z,13.53
2018-08-07T09:40:36.501Z,9.70
2018-08-07T09:43:04.769Z,30.62
2018-08-07T09:45:35.162Z,5.25
2018-08-07T09:48:09.031Z,6.75
2018-08-07T09:50:37.325Z,6.40
2018-08-07T09:53:05.638Z,6.20
2018-08-07T09:55:33.881Z,7.50
2018-08-07T09:58:02.638Z,6.10
2018-08-07T10:00:36.287Z,5.58
2018-08-07T10:03:09.282Z,6.72
2018-08-07T10:05:37.700Z,6.80
2018-08-07T10:08:05.877Z,9.48
2018-08-07T10:10:34.084Z,5.50
2018-08-07T10:13:02.517Z,5.58
2018-08-07T10:15:30.473Z,5.92
2018-08-07T10:17:59.305Z,6.25
2018-08-07T10:20:27.450Z,11.30
2018-08-07T10:22:55.997Z,7.47
2018-08-07T10:25:24.374Z,7.53
2018-08-07T10:27:53.045Z,6.90
2018-08-07T10:30:22.805Z,7.92
2018-08-07T10:32:52.527Z,7.28
2018-08-07T10:35:20.731Z,6.20
2018-08-07T10:37:52.969Z,6.12
2018-08-07T10:40:22.993Z,7.40
2018-08-07T10:42:51.250Z,10.28
2018-08-07T10:45:20.563Z,5.67
2018-08-07T10:47:48.890Z,5.80
2018-08-07T10:50:19.276Z,5.70
2018-08-07T10:52:47.867Z,5.65
2018-08-07T10:55:16.519Z,5.25
2018-08-07T10:57:46.354Z,5.50
2018-08-07T11:00:21.806Z,5.33
2018-08-07T11:02:50.710Z,5.50
2018-08-07T11:05:19.465Z,5.28
2018-08-07T11:07:47.384Z,5.03
2018-08-07T11:10:15.994Z,7.12
2018-08-07T11:12:44.234Z,6.75
2018-08-07T11:15:19.294Z,5.10
2018-08-07T11:17:48.419Z,5.80
2018-08-07T11:20:16.984Z,5.80
2018-08-07T11:22:47.734Z,8.40
2018-08-07T11:25:17.937Z,4.92
2018-08-07T11:27:46.109Z,4.87
2018-08-07T11:30:16.590Z,9.18
2018-08-07T11:32:45.230Z,5.72
2018-08-07T11:35:13.942Z,11.50
2018-08-07T11:37:43.209Z,5.42
2018-08-07T11:40:13.841Z,10.10
2018-08-07T11:42:42.341Z,6.47
2018-08-07T11:45:12.853Z,5.80
2018-08-07T11:47:41.107Z,6.20
2018-08-07T11:50:13.177Z,5.45
2018-08-07T11:52:41.455Z,7.70
2018-08-07T11:55:11.569Z,6.25
2018-08-07T11:57:39.762Z,8.60
2018-08-07T12:00:41.090Z,6.28
2018-08-07T12:03:10.593Z,6.53
2018-08-07T12:05:39.102Z,6.58
2018-08-07T12:08:07.880Z,6.20
2018-08-07T12:10:36.057Z,7.45
2018-08-07T12:13:04.262Z,6.08
2018-08-07T12:15:32.413Z,6.10
2018-08-07T12:18:00.617Z,9.93
2018-08-07T12:20:28.931Z,6.60
2018-08-07T12:22:57.823Z,6.12
2018-08-07T12:25:26.377Z,8.50
2018-08-07T12:27:54.673Z,6.22
2018-08-07T12:30:25.661Z,8.50
2018-08-07T12:32:53.902Z,8.48
2018-08-07T12:35:22.156Z,6.42
2018-08-07T12:37:50.475Z,5.72
2018-08-07T12:40:21.001Z,6.45
2018-08-07T12:42:49.767Z,8.68
2018-08-07T12:45:18.156Z,6.78
2018-08-07T12:47:46.954Z,7.40
2018-08-07T12:50:16.042Z,5.55
2018-08-07T12:52:44.290Z,6.30
2018-08-07T12:55:14.212Z,7.72
2018-08-07T12:57:42.591Z,6.20
2018-08-07T13:00:14.143Z,5.62
2018-08-07T13:02:42.407Z,5.20
2018-08-07T13:05:10.631Z,8.15
2018-08-07T13:07:38.783Z,6.17
2018-08-07T13:10:09.798Z,6.30
2018-08-07T13:12:38.535Z,6.10
2018-08-07T13:15:07.799Z,6.17
2018-08-07T13:17:36.066Z,6.25
2018-08-07T13:20:06.240Z,6.05
2018-08-07T13:22:34.859Z,5.62
2018-08-07T13:25:03.058Z,6.05
2018-08-07T13:27:31.725Z,5.97
2018-08-07T13:29:59.990Z,6.10
2018-08-07T13:32:29.232Z,6.17
2018-08-07T13:34:57.449Z,6.22
2018-08-07T13:37:26.075Z,5.90
2018-08-07T13:39:54.265Z,9.20
2018-08-07T13:42:22.545Z,5.67
2018-08-07T13:44:50.697Z,7.37
2018-08-07T13:47:18.906Z,8.13
2018-08-07T13:49:47.124Z,8.58
2018-08-07T13:52:15.410Z,9.73
2018-08-07T13:54:43.594Z,8.58
2018-08-07T13:57:12.094Z,7.72
2018-08-07T13:59:40.327Z,6.35
2018-08-07T14:02:08.785Z,7.08
2018-08-07T14:04:37.626Z,8.30
2018-08-07T14:07:05.804Z,8.28
2018-08-07T14:09:34.110Z,6.67
2018-08-07T14:12:02.429Z,8.65
2018-08-07T14:14:30.567Z,6.90
2018-08-07T14:16:58.709Z,6.30
2018-08-07T14:19:26.882Z,6.20
2018-08-07T14:21:55.118Z,5.53
2018-08-07T14:24:23.353Z,5.37
2018-08-07T14:26:51.642Z,8.45
2018-08-07T14:29:19.857Z,5.37
2018-08-07T14:31:48.147Z,6.87
2018-08-07T14:34:16.356Z,5.40
2018-08-07T14:36:44.583Z,10.78
2018-08-07T14:39:12.786Z,5.78
2018-08-07T14:41:40.918Z,6.05
2018-08-07T14:44:09.713Z,6.58
2018-08-07T14:46:38.355Z,6.58
2018-08-07T14:49:06.573Z,6.62
2018-08-07T14:51:34.801Z,6.47
2018-08-07T14:54:03.010Z,6.03
2018-08-07T14:56:31.157Z,7.12
2018-08-07T14:58:59.332Z,10.23
2018-08-07T15:01:27.504Z,7.28
2018-08-07T15:03:56.865Z,12.07
2018-08-07T15:06:25.083Z,7.17
2018-08-07T15:08:53.250Z,5.80
2018-08-07T15:11:21.418Z,7.83
2018-08-07T15:13:49.621Z,13.43
2018-08-07T15:16:17.788Z,15.53
2018-08-07T15:18:46.092Z,6.97
2018-08-07T15:21:14.691Z,11.28
2018-08-07T15:23:42.875Z,16.25
2018-08-07T15:26:11.194Z,7.37
2018-08-07T15:28:39.381Z,5.00
2018-08-07T15:31:08.463Z,13.15
2018-08-07T15:33:36.643Z,12.43
2018-08-07T15:36:06.666Z,4.85
2018-08-07T15:38:35.390Z,4.75
2018-08-07T15:41:03.629Z,6.00
2018-08-07T15:43:31.977Z,5.87
2018-08-07T15:46:00.190Z,4.95
2018-08-07T15:48:28.397Z,4.92
2018-08-07T15:50:56.639Z,4.90
2018-08-07T15:53:24.818Z,5.08
2018-08-07T15:55:53.005Z,5.30
2018-08-07T15:58:21.143Z,5.55
2018-08-07T16:00:49.417Z,5.58
2018-08-07T16:03:17.653Z,5.20
2018-08-07T16:05:45.840Z,4.83
2018-08-07T16:08:14.073Z,8.50
2018-08-07T16:10:42.301Z,6.22
2018-08-07T16:13:10.870Z,5.28
2018-08-07T16:15:39.016Z,5.70
2018-08-07T16:18:07.549Z,5.25
2018-08-07T16:20:36.042Z,5.30
2018-08-07T16:23:04.501Z,7.45
2018-08-07T16:25:32.702Z,5.53
2018-08-07T16:28:00.871Z,5.47
2018-08-07T16:30:29.514Z,5.28
2018-08-07T16:32:57.589Z,6.67
2018-08-07T16:35:25.821Z,8.65
2018-08-07T16:37:54.076Z,5.55
2018-08-07T16:40:23.489Z,5.60
2018-08-07T16:42:52.889Z,4.78
2018-08-07T16:45:22.327Z,6.10
2018-08-07T16:47:50.857Z,5.72
2018-08-07T16:50:25.142Z,4.58
2018-08-07T16:52:54.417Z,6.10
2018-08-07T16:55:24.902Z,4.45
2018-08-07T16:57:53.165Z,5.65
2018-08-07T17:00:21.674Z,4.17
2018-08-07T17:02:50.457Z,10.95
2018-08-07T17:05:18.817Z,5.28
2018-08-07T17:07:47.855Z,5.72
2018-08-07T17:10:25.145Z,6.72
2018-08-07T17:12:53.354Z,4.22
2018-08-07T17:15:22.302Z,3.80
2018-08-07T17:17:51.339Z,6.05
2018-08-07T17:20:22.584Z,4.45
2018-08-07T17:22:51.350Z,9.40
2018-08-07T17:25:20.817Z,4.00
2018-08-07T17:27:49.568Z,3.92
2018-08-07T17:30:19.649Z,5.55
2018-08-07T17:32:48.033Z,4.55
2018-08-07T17:35:18.243Z,6.10
2018-08-07T17:37:47.123Z,8.60
2018-08-07T17:40:16.833Z,4.15
2018-08-07T17:42:45.027Z,5.92
2018-08-07T17:45:13.409Z,16.85
2018-08-07T17:47:41.357Z,5.83
2018-08-07T17:50:11.759Z,8.05
2018-08-07T17:52:40.077Z,7.35
2018-08-07T17:55:08.994Z,5.33
2018-08-07T17:57:38.491Z,4.50
2018-08-07T18:00:22.609Z,4.67
2018-08-07T18:02:50.813Z,5.58
2018-08-07T18:05:19.029Z,10.72
2018-08-07T18:07:49.063Z,6.70
2018-08-07T18:10:18.429Z,5.42
2018-08-07T18:12:46.677Z,4.50
2018-08-07T18:15:16.077Z,5.42
2018-08-07T18:17:45.277Z,11.25
2018-08-07T18:20:20.109Z,6.87
2018-08-07T18:22:48.674Z,4.10
2018-08-07T18:25:17.633Z,4.70
2018-08-07T18:27:45.964Z,7.62
2018-08-07T18:30:15.659Z,4.45
2018-08-07T18:32:44.276Z,4.80
2018-08-07T18:35:17.645Z,4.42
2018-08-07T18:37:45.556Z,5.50
2018-08-07T18:40:13.758Z,8.55
2018-08-07T18:42:42.403Z,6.25
2018-08-07T18:45:12.291Z,7.35
2018-08-07T18:47:41.888Z,5.25
2018-08-07T18:50:11.777Z,8.20
2018-08-07T18:52:40.671Z,6.85
2018-08-07T18:55:11.562Z,5.25
2018-08-07T18:57:40.650Z,4.97
2018-08-07T19:00:11.077Z,5.58
2018-08-07T19:02:39.795Z,7.20
2018-08-07T19:05:08.941Z,9.00
2018-08-07T19:07:37.717Z,4.62
2018-08-07T19:10:05.896Z,11.18
2018-08-07T19:12:34.074Z,6.08
2018-08-07T19:15:02.234Z,4.50
2018-08-07T19:17:30.390Z,4.17
2018-08-07T19:19:58.630Z,3.40
2018-08-07T19:22:26.797Z,3.72
2018-08-07T19:24:54.981Z,3.75
2018-08-07T19:27:23.166Z,3.65
2018-08-07T19:29:51.832Z,6.12
2018-08-07T19:32:20.075Z,3.60
2018-08-07T19:34:48.271Z,3.58
2018-08-07T19:37:16.443Z,3.37
2018-08-07T19:39:44.582Z,2.85
2018-08-07T19:42:12.799Z,2.92
2018-08-07T19:44:41.029Z,4.75
2018-08-07T19:47:09.534Z,3.80
2018-08-07T19:49:37.729Z,6.15
2018-08-07T19:52:06.166Z,3.83
2018-08-07T19:54:34.479Z,4.08
2018-08-07T19:57:02.641Z,7.33
2018-08-07T19:59:31.025Z,6.12
2018-08-07T20:01:58.961Z,3.30
2018-08-07T20:04:27.198Z,3.70
2018-08-07T20:06:55.354Z,3.75
2018-08-07T20:09:23.698Z,3.00
2018-08-07T20:11:52.061Z,3.62
2018-08-07T20:14:20.486Z,5.97
2018-08-07T20:16:48.659Z,4.37
2018-08-07T20:19:16.990Z,2.80
2018-08-07T20:21:45.403Z,9.63
2018-08-07T20:24:13.601Z,3.37
2018-08-07T20:26:41.841Z,3.20
2018-08-07T20:29:10.057Z,3.58
2018-08-07T20:31:38.289Z,4.55
2018-08-07T20:34:06.501Z,3.00
2018-08-07T20:36:34.760Z,3.05
2018-08-07T20:39:03.026Z,3.10
2018-08-07T20:41:31.012Z,2.90
2018-08-07T20:43:59.250Z,3.45
2018-08-07T20:46:27.839Z,3.35
2018-08-07T20:48:56.046Z,2.65
2018-08-07T20:51:24.273Z,2.90
2018-08-07T20:53:52.453Z,3.45
2018-08-07T20:56:20.637Z,3.00
2018-08-07T20:58:49.656Z,3.00
2018-08-07T21:01:17.957Z,2.75
2018-08-07T21:03:46.165Z,3.65
2018-08-07T21:06:14.378Z,3.08
2018-08-07T21:08:42.550Z,3.30
2018-08-07T21:11:10.732Z,2.80
2018-08-07T21:13:38.946Z,5.05
2018-08-07T21:16:07.182Z,2.80
2018-08-07T21:18:35.324Z,2.85
2018-08-07T21:21:03.853Z,3.27
2018-08-07T21:23:32.102Z,2.67
2018-08-07T21:26:00.301Z,3.45
2018-08-07T21:28:28.583Z,3.10
2018-08-07T21:30:56.850Z,3.50
2018-08-07T21:33:25.048Z,3.85
2018-08-07T21:35:53.244Z,3.80
2018-08-07T21:38:21.377Z,3.65
2018-08-07T21:40:49.664Z,4.12
2018-08-07T21:43:17.806Z,3.62
2018-08-07T21:45:46.243Z,4.47
2018-08-07T21:48:14.460Z,3.58
2018-08-07T21:50:43.363Z,3.70
2018-08-07T21:53:11.609Z,4.12
2018-08-07T21:55:39.810Z,3.80
2018-08-07T21:58:07.950Z,4.15
2018-08-07T22:00:43.240Z,4.05
2018-08-07T22:03:11.473Z,4.00
2018-08-07T22:05:39.717Z,3.95
2018-08-07T22:08:08.794Z,3.92
2018-08-07T22:10:37.127Z,4.03
2018-08-07T22:13:06.198Z,3.22
2018-08-07T22:15:34.431Z,6.03
2018-08-07T22:18:02.381Z,5.75
2018-08-07T22:20:30.574Z,5.17
2018-08-07T22:22:58.791Z,5.55
2018-08-07T22:25:27.028Z,3.87
2018-08-07T22:27:55.889Z,3.47
2018-08-07T22:30:24.224Z,7.85
2018-08-07T22:32:52.390Z,5.95
2018-08-07T22:35:20.605Z,3.55
2018-08-07T22:37:52.433Z,4.90
2018-08-07T22:40:20.616Z,5.53
2018-08-07T22:42:48.851Z,3.70
2018-08-07T22:45:18.144Z,6.53
2018-08-07T22:47:46.394Z,4.33
2018-08-07T22:50:16.022Z,3.20
2018-08-07T22:52:44.713Z,5.00
2018-08-07T22:55:16.355Z,3.30
2018-08-07T22:57:49.551Z,3.80
2018-08-07T23:00:19.530Z,3.52
2018-08-07T23:02:47.645Z,3.42
2018-08-07T23:05:16.889Z,3.55
2018-08-07T23:07:45.097Z,3.42
2018-08-07T23:10:19.666Z,3.72
2018-08-07T23:12:47.923Z,3.40
2018-08-07T23:15:18.130Z,3.62
2018-08-07T23:17:46.913Z,3.83
2018-08-07T23:20:16.653Z,4.17
2018-08-07T23:22:44.559Z,5.20
2018-08-07T23:25:12.878Z,4.60
2018-08-07T23:27:41.041Z,3.52
2018-08-07T23:30:14.967Z,3.65
2018-08-07T23:32:43.156Z,3.37
2018-08-07T23:35:11.442Z,3.40
2018-08-07T23:37:39.602Z,3.92
2018-08-07T23:40:09.297Z,6.78
2018-08-07T23:42:37.576Z,5.78
2018-08-07T23:45:07.071Z,3.72
2018-08-07T23:47:35.363Z,3.85
2018-08-07T23:50:03.530Z,4.92
2018-08-07T23:52:31.681Z,3.40
2018-08-07T23:55:00.359Z,4.28
2018-08-07T23:57:28.536Z,3.20
2018-08-07T23:59:56.724Z,6.83
